createdAt,value
2023-04-19T00:02:11.316Z,10.00
2023-04-19T00:04:39.797Z,10.00
2023-04-19T00:07:08.536Z,10.00
2023-04-19T00:09:36.704Z,9.90
2023-04-19T00:12:05.156Z,9.90
2023-04-19T00:14:33.436Z,9.90
2023-04-19T00:17:01.713Z,9.90
2023-04-19T00:19:31.251Z,9.90
2023-04-19T00:21:59.439Z,9.80
2023-04-19T00:24:27.692Z,9.80
2023-04-19T00:26:55.947Z,9.90
2023-04-19T00:29:24.163Z,9.80
2023-04-19T00:31:52.995Z,9.90
2023-04-19T00:34:21.245Z,9.80
2023-04-19T00:36:50.772Z,9.80
2023-04-19T00:39:18.961Z,9.80
2023-04-19T00:41:47.111Z,9.80
2023-04-19T00:44:15.681Z,9.70
2023-04-19T00:46:45.226Z,9.70
2023-04-19T00:49:13.685Z,9.70
2023-04-19T00:51:42.226Z,9.60
2023-04-19T00:54:16.643Z,9.60
2023-04-19T00:56:46.691Z,9.70
2023-04-19T00:59:17.090Z,9.70
2023-04-19T01:01:45.361Z,9.70
2023-04-19T01:04:14.397Z,9.70
2023-04-19T01:06:43.489Z,9.80
2023-04-19T01:09:13.924Z,9.80
2023-04-19T01:11:43.616Z,9.80
2023-04-19T01:14:12.023Z,9.80
2023-04-19T01:16:41.458Z,9.80
2023-04-19T01:19:09.658Z,9.90
2023-04-19T01:21:40.041Z,9.90
2023-04-19T01:24:09.872Z,9.90
2023-04-19T01:26:38.097Z,9.90
2023-04-19T01:29:06.282Z,10.00
2023-04-19T01:31:34.466Z,10.00
2023-04-19T01:34:02.651Z,10.00
2023-04-19T01:36:32.162Z,10.00
2023-04-19T01:39:00.344Z,10.00
2023-04-19T01:41:30.245Z,10.00
2023-04-19T01:43:58.409Z,10.00
2023-04-19T01:46:26.558Z,10.00
2023-04-19T01:48:54.811Z,10.00
2023-04-19T01:51:22.988Z,10.00
2023-04-19T01:53:53.635Z,10.00
2023-04-19T01:56:22.573Z,10.00
2023-04-19T01:58:52.163Z,10.00
2023-04-19T02:01:20.861Z,10.00
2023-04-19T02:03:49.365Z,10.00
2023-04-19T02:06:17.733Z,9.90
2023-04-19T02:08:45.971Z,9.90
2023-04-19T02:11:15.610Z,9.90
2023-04-19T02:13:44.281Z,9.90
2023-04-19T02:16:13.896Z,9.90
2023-04-19T02:18:42.136Z,9.90
2023-04-19T02:21:12.029Z,9.90
2023-04-19T02:23:40.358Z,9.90
2023-04-19T02:26:08.678Z,9.80
2023-04-19T02:28:37.939Z,9.80
2023-04-19T02:31:08.328Z,9.80
2023-04-19T02:33:37.825Z,9.80
2023-04-19T02:36:06.612Z,9.80
2023-04-19T02:38:35.288Z,9.80
2023-04-19T02:41:04.405Z,9.80
2023-04-19T02:43:32.721Z,9.70
2023-04-19T02:46:01.166Z,9.70
2023-04-19T02:48:29.438Z,9.70
2023-04-19T02:50:59.247Z,9.70
2023-04-19T02:53:27.689Z,9.70
2023-04-19T02:55:56.153Z,9.70
2023-04-19T02:58:24.344Z,9.70
2023-04-19T03:01:01.271Z,9.70
2023-04-19T03:03:29.507Z,9.70
2023-04-19T03:05:59.276Z,9.70
2023-04-19T03:08:28.453Z,9.70
2023-04-19T03:10:56.652Z,9.70
2023-04-19T03:13:24.942Z,9.70
2023-04-19T03:15:53.482Z,9.70
2023-04-19T03:18:24.091Z,9.70
2023-04-19T03:20:54.282Z,9.60
2023-04-19T03:23:24.016Z,9.70
2023-04-19T03:25:52.441Z,9.70
2023-04-19T03:28:38.398Z,9.70
2023-04-19T03:31:12.508Z,9.70
2023-04-19T03:33:41.652Z,9.60
2023-04-19T03:36:11.285Z,9.60
2023-04-19T03:38:43.593Z,9.60
2023-04-19T03:41:21.271Z,9.50
2023-04-19T03:43:53.043Z,9.50
2023-04-19T03:46:21.434Z,9.50
2023-04-19T03:48:51.488Z,9.50
2023-04-19T03:51:20.981Z,9.50
2023-04-19T03:53:50.518Z,9.50
2023-04-19T03:56:20.533Z,9.50
2023-04-19T03:58:51.849Z,9.40
2023-04-19T04:01:21.206Z,9.40
2023-04-19T04:03:50.569Z,9.40
2023-04-19T04:06:20.149Z,9.30
2023-04-19T04:08:50.204Z,9.20
2023-04-19T04:11:18.406Z,9.00
2023-04-19T04:13:50.347Z,8.90
2023-04-19T04:16:22.443Z,8.90
2023-04-19T04:18:52.530Z,8.80
2023-04-19T04:21:22.365Z,8.80
2023-04-19T04:23:53.174Z,8.80
2023-04-19T04:26:33.961Z,8.80
2023-04-19T04:29:19.043Z,8.80
2023-04-19T04:31:47.720Z,8.80
2023-04-19T04:34:20.432Z,8.80
2023-04-19T04:36:54.370Z,8.80
2023-04-19T04:39:25.599Z,8.80
2023-04-19T04:41:53.774Z,8.80
2023-04-19T04:44:22.442Z,8.80
2023-04-19T04:46:50.764Z,8.70
2023-04-19T04:49:25.179Z,8.70
2023-04-19T04:51:53.413Z,8.70
2023-04-19T04:54:22.872Z,8.80
2023-04-19T04:56:52.815Z,8.80
2023-04-19T04:59:21.004Z,8.80
2023-04-19T05:01:51.043Z,8.80
2023-04-19T05:04:20.315Z,8.70
2023-04-19T05:06:49.265Z,8.70
2023-04-19T05:09:23.146Z,8.60
2023-04-19T05:11:53.385Z,8.60
2023-04-19T05:14:21.875Z,8.60
2023-04-19T05:16:50.333Z,8.60
2023-04-19T05:19:19.036Z,8.60
2023-04-19T05:21:52.686Z,8.60
2023-04-19T05:24:20.881Z,8.60
2023-04-19T05:26:49.222Z,8.70
2023-04-19T05:29:18.924Z,8.80
2023-04-19T05:31:53.397Z,8.90
2023-04-19T05:34:28.854Z,8.90
2023-04-19T05:36:58.823Z,8.90
2023-04-19T05:39:27.746Z,9.00
2023-04-19T05:41:55.999Z,9.00
2023-04-19T05:44:25.857Z,9.10
2023-04-19T05:46:54.143Z,9.10
2023-04-19T05:49:43.404Z,9.20
2023-04-19T05:52:33.763Z,9.20
2023-04-19T05:55:03.029Z,9.30
2023-04-19T05:57:31.727Z,9.40
2023-04-19T06:00:02.451Z,9.40
2023-04-19T06:02:41.875Z,9.40
2023-04-19T06:05:13.683Z,9.50
2023-04-19T06:07:47.334Z,9.50
2023-04-19T06:10:23.475Z,9.60
2023-04-19T06:12:51.805Z,9.70
2023-04-19T06:15:21.488Z,9.70
2023-04-19T06:17:49.805Z,9.80
2023-04-19T06:20:18.290Z,9.80
2023-04-19T06:22:47.059Z,9.80
2023-04-19T06:25:15.457Z,9.90
2023-04-19T06:27:43.663Z,9.90
2023-04-19T06:30:12.730Z,10.00
2023-04-19T06:32:42.293Z,10.00
2023-04-19T06:35:10.791Z,10.00
2023-04-19T06:37:39.162Z,10.10
2023-04-19T06:40:09.377Z,10.10
2023-04-19T06:42:37.530Z,10.20
2023-04-19T06:45:09.540Z,10.30
2023-04-19T06:47:37.916Z,10.40
2023-04-19T06:50:09.471Z,10.40
2023-04-19T06:52:37.862Z,10.50
2023-04-19T06:55:07.397Z,10.60
2023-04-19T06:57:35.655Z,10.60
2023-04-19T07:00:07.875Z,10.70
2023-04-19T07:02:36.264Z,10.80
2023-04-19T07:05:05.041Z,10.90
2023-04-19T07:07:34.538Z,10.90
2023-04-19T07:10:02.876Z,11.00
2023-04-19T07:12:31.106Z,11.10
2023-04-19T07:14:59.259Z,11.10
2023-04-19T07:17:27.534Z,11.20
2023-04-19T07:19:56.225Z,11.20
2023-04-19T07:22:24.437Z,11.30
2023-04-19T07:24:55.227Z,11.30
2023-04-19T07:27:23.429Z,11.30
2023-04-19T07:29:51.756Z,11.30
2023-04-19T07:32:20.887Z,11.30
2023-04-19T07:34:49.276Z,11.30
2023-04-19T07:37:17.489Z,11.30
2023-04-19T07:39:45.709Z,11.40
2023-04-19T07:42:15.163Z,11.40
2023-04-19T07:44:43.409Z,11.50
2023-04-19T07:47:11.597Z,11.50
2023-04-19T07:49:39.764Z,11.50
2023-04-19T07:52:09.119Z,11.50
2023-04-19T07:54:39.173Z,11.50
2023-04-19T07:57:07.287Z,11.60
2023-04-19T07:59:36.809Z,11.50
2023-04-19T08:02:05.160Z,11.50
2023-04-19T08:04:33.668Z,11.50
2023-04-19T08:07:03.813Z,11.50
2023-04-19T08:09:32.157Z,11.50
2023-04-19T08:12:01.212Z,11.40
2023-04-19T08:14:40.555Z,11.50
2023-04-19T08:17:24.631Z,11.50
2023-04-19T08:19:55.234Z,11.70
2023-04-19T08:22:23.447Z,11.70
2023-04-19T08:24:52.759Z,11.70
2023-04-19T08:27:21.457Z,11.70
2023-04-19T08:29:49.811Z,11.60
2023-04-19T08:32:19.495Z,11.60
2023-04-19T08:34:47.797Z,11.60
2023-04-19T08:37:15.959Z,11.60
2023-04-19T08:39:44.121Z,11.60
2023-04-19T08:42:24.634Z,11.60
2023-04-19T08:47:48.227Z,11.60
2023-04-19T08:50:33.493Z,11.50
2023-04-19T08:53:20.998Z,11.40
2023-04-19T08:56:10.850Z,11.40
2023-04-19T09:01:30.482Z,11.30
2023-04-19T09:04:21.657Z,11.20
2023-04-19T09:06:54.117Z,11.10
2023-04-19T09:09:36.501Z,11.00
2023-04-19T09:12:18.675Z,10.90
2023-04-19T09:17:19.409Z,10.80
2023-04-19T09:19:50.715Z,10.70
2023-04-19T09:22:19.605Z,10.70
2023-04-19T09:27:28.597Z,10.70
2023-04-19T09:29:57.928Z,10.70
2023-04-19T09:32:27.278Z,10.80
2023-04-19T09:34:59.526Z,10.80
2023-04-19T09:39:59.919Z,10.70
2023-04-19T09:48:03.819Z,10.60
2023-04-19T09:50:35.984Z,10.60
2023-04-19T09:53:15.498Z,10.60
2023-04-19T09:55:57.755Z,10.70
2023-04-19T09:58:41.618Z,10.70
2023-04-19T10:01:20.175Z,10.70
2023-04-19T10:03:52.771Z,10.70
2023-04-19T10:06:40.462Z,10.70
2023-04-19T10:09:15.779Z,10.80
2023-04-19T10:14:24.462Z,10.90
2023-04-19T10:16:53.059Z,10.90
2023-04-19T10:19:23.956Z,11.00
2023-04-19T10:21:54.192Z,11.00
2023-04-19T10:24:23.811Z,11.00
2023-04-19T10:27:11.964Z,11.10
2023-04-19T10:30:05.076Z,11.20
2023-04-19T10:32:40.743Z,11.30
2023-04-19T10:35:12.311Z,11.40
2023-04-19T10:38:04.448Z,11.50
2023-04-19T10:41:05.467Z,11.70
2023-04-19T10:43:35.288Z,11.90
2023-04-19T10:46:09.406Z,12.20
2023-04-19T10:48:53.521Z,12.50
2023-04-19T10:51:25.050Z,12.60
2023-04-19T10:53:59.692Z,12.90
2023-04-19T10:57:02.002Z,13.10
2023-04-19T10:59:34.459Z,13.40
2023-04-19T11:02:04.991Z,13.70
2023-04-19T11:05:02.430Z,14.20
2023-04-19T11:07:39.779Z,14.30
2023-04-19T11:10:11.410Z,14.60
2023-04-19T11:12:44.834Z,14.80
2023-04-19T11:15:13.159Z,14.90
2023-04-19T11:17:42.470Z,14.90
2023-04-19T11:20:13.453Z,14.90
2023-04-19T11:22:43.895Z,14.80
2023-04-19T11:25:16.625Z,14.80
2023-04-19T11:27:46.526Z,14.80
2023-04-19T11:30:19.450Z,14.90
2023-04-19T11:32:49.409Z,15.00
2023-04-19T11:35:21.789Z,15.20
2023-04-19T11:37:50.383Z,15.50
2023-04-19T11:40:22.348Z,15.90
2023-04-19T11:42:56.605Z,16.20
2023-04-19T11:45:32.997Z,16.20
2023-04-19T11:48:05.932Z,16.30
2023-04-19T11:50:37.779Z,16.40
2023-04-19T11:53:17.546Z,16.20
2023-04-19T11:55:51.437Z,16.00
2023-04-19T11:58:29.869Z,15.90
2023-04-19T12:01:04.029Z,16.00
2023-04-19T12:03:32.520Z,16.40
2023-04-19T12:06:04.614Z,16.80
2023-04-19T12:08:35.099Z,16.90
2023-04-19T12:11:06.981Z,17.00
2023-04-19T12:13:37.411Z,17.20
2023-04-19T12:16:06.709Z,17.60
2023-04-19T12:18:48.342Z,17.70
2023-04-19T12:21:27.478Z,18.10
2023-04-19T12:23:57.943Z,18.50
2023-04-19T12:26:29.244Z,18.50
2023-04-19T12:28:58.677Z,18.60
2023-04-19T12:31:27.037Z,18.40
2023-04-19T12:33:55.727Z,18.70
2023-04-19T12:36:24.011Z,19.40
2023-04-19T12:38:52.341Z,19.80
2023-04-19T12:41:21.106Z,20.40
2023-04-19T12:43:50.664Z,21.00
2023-04-19T12:46:18.904Z,21.30
2023-04-19T12:48:47.103Z,21.60
2023-04-19T12:51:15.375Z,21.80
2023-04-19T12:53:48.920Z,21.70
2023-04-19T12:56:17.264Z,21.60
2023-04-19T12:58:45.543Z,21.90
2023-04-19T13:01:15.353Z,22.10
2023-04-19T13:03:43.823Z,22.30
2023-04-19T13:06:13.519Z,22.60
2023-04-19T13:08:46.648Z,23.10
2023-04-19T13:11:17.776Z,23.50
2023-04-19T13:13:46.119Z,23.80
2023-04-19T13:16:15.872Z,24.20
2023-04-19T13:18:44.106Z,24.50
2023-04-19T13:21:12.280Z,24.60
2023-04-19T13:23:40.554Z,24.10
2023-04-19T13:26:08.832Z,24.10
2023-04-19T13:28:37.162Z,24.30
2023-04-19T13:31:06.450Z,24.60
2023-04-19T13:33:36.051Z,25.00
2023-04-19T13:36:05.021Z,25.30
2023-04-19T13:38:33.284Z,25.60
2023-04-19T13:41:03.549Z,25.60
2023-04-19T13:43:31.785Z,25.50
2023-04-19T13:45:59.978Z,25.80
2023-04-19T13:48:29.008Z,25.30
2023-04-19T13:50:59.436Z,24.90
2023-04-19T13:53:29.041Z,24.50
2023-04-19T13:55:57.905Z,24.30
2023-04-19T13:58:26.090Z,24.30
2023-04-19T14:00:54.639Z,24.50
2023-04-19T14:03:23.798Z,24.70
2023-04-19T14:05:52.214Z,25.10
2023-04-19T14:08:21.984Z,25.60
2023-04-19T14:10:51.212Z,26.10
2023-04-19T14:13:19.517Z,26.50
2023-04-19T14:15:47.671Z,26.70
2023-04-19T14:18:15.991Z,26.90
2023-04-19T14:20:44.223Z,27.00
2023-04-19T14:23:12.516Z,26.50
2023-04-19T14:25:42.171Z,26.50
2023-04-19T14:28:12.585Z,26.70
2023-04-19T14:30:41.369Z,26.90
2023-04-19T14:33:10.124Z,26.80
2023-04-19T14:35:38.335Z,26.90
2023-04-19T14:38:06.642Z,26.60
2023-04-19T14:40:35.122Z,26.50
2023-04-19T14:43:04.660Z,25.80
2023-04-19T14:45:32.890Z,24.70
2023-04-19T14:48:01.356Z,23.40
2023-04-19T14:50:29.645Z,22.00
2023-04-19T14:52:57.848Z,20.80
2023-04-19T14:55:27.469Z,20.00
2023-04-19T14:57:55.728Z,20.50
2023-04-19T15:00:25.548Z,21.60
2023-04-19T15:02:54.265Z,22.50
2023-04-19T15:05:24.642Z,23.40
2023-04-19T15:07:53.121Z,24.10
2023-04-19T15:10:21.520Z,24.60
2023-04-19T15:12:49.734Z,24.90
2023-04-19T15:15:18.170Z,25.40
2023-04-19T15:17:47.821Z,26.00
2023-04-19T15:20:16.609Z,26.70
2023-04-19T15:22:44.985Z,27.10
2023-04-19T15:25:13.305Z,26.60
2023-04-19T15:27:42.268Z,25.80
2023-04-19T15:30:12.273Z,24.10
2023-04-19T15:32:43.097Z,22.60
2023-04-19T15:35:14.010Z,21.50
2023-04-19T15:37:43.706Z,22.10
2023-04-19T15:40:14.354Z,22.90
2023-04-19T15:42:42.764Z,23.50
2023-04-19T15:45:12.052Z,24.10
2023-04-19T15:47:40.558Z,24.70
2023-04-19T15:50:10.297Z,25.10
2023-04-19T15:52:39.842Z,25.60
2023-04-19T15:55:09.308Z,26.20
2023-04-19T15:57:37.449Z,26.40
2023-04-19T16:00:09.359Z,26.20
2023-04-19T16:02:40.773Z,26.20
2023-04-19T16:05:10.166Z,26.30
2023-04-19T16:07:39.728Z,26.60
2023-04-19T16:10:09.031Z,25.80
2023-04-19T16:12:37.309Z,24.50
2023-04-19T16:15:07.185Z,23.10
2023-04-19T16:17:35.424Z,22.90
2023-04-19T16:20:04.600Z,23.50
2023-04-19T16:22:32.994Z,24.10
2023-04-19T16:25:02.623Z,24.30
2023-04-19T16:27:33.539Z,24.20
2023-04-19T16:30:01.758Z,23.30
2023-04-19T16:32:30.100Z,22.00
2023-04-19T16:34:58.373Z,21.80
2023-04-19T16:37:26.641Z,22.20
2023-04-19T16:39:54.814Z,21.80
2023-04-19T16:42:24.461Z,20.90
2023-04-19T16:44:52.718Z,19.90
2023-04-19T16:47:21.863Z,19.10
2023-04-19T16:49:50.576Z,18.40
2023-04-19T16:52:18.860Z,17.80
2023-04-19T16:54:46.982Z,17.30
2023-04-19T16:57:15.403Z,16.80
2023-04-19T16:59:45.901Z,16.30
2023-04-19T17:02:14.327Z,15.90
2023-04-19T17:04:42.935Z,15.40
2023-04-19T17:07:11.618Z,15.00
2023-04-19T17:09:40.182Z,14.70
2023-04-19T17:12:08.990Z,14.30
2023-04-19T17:14:37.427Z,14.10
2023-04-19T17:17:07.172Z,13.80
2023-04-19T17:19:35.369Z,13.60
2023-04-19T17:22:05.434Z,13.40
2023-04-19T17:24:34.546Z,13.20
2023-04-19T17:27:03.295Z,13.00
2023-04-19T17:29:31.466Z,12.80
2023-04-19T17:32:00.431Z,12.60
2023-04-19T17:34:30.130Z,12.50
2023-04-19T17:36:59.427Z,12.40
2023-04-19T17:39:27.858Z,12.20
2023-04-19T17:41:56.953Z,12.00
2023-04-19T17:44:25.374Z,11.80
2023-04-19T17:46:53.706Z,11.70
2023-04-19T17:49:22.043Z,11.50
2023-04-19T17:51:53.098Z,11.40
2023-04-19T17:54:21.352Z,11.20
2023-04-19T17:56:49.871Z,11.10
2023-04-19T17:59:18.164Z,10.90
2023-04-19T18:01:46.662Z,10.80
2023-04-19T18:04:17.841Z,10.70
2023-04-19T18:06:46.514Z,10.60
2023-04-19T18:09:16.538Z,10.40
2023-04-19T18:11:45.044Z,10.30
2023-04-19T18:14:13.218Z,10.20
2023-04-19T18:16:41.476Z,10.10
2023-04-19T18:19:09.925Z,10.00
2023-04-19T18:21:38.500Z,9.90
2023-04-19T18:24:07.714Z,9.80
2023-04-19T18:26:43.098Z,9.70
2023-04-19T18:29:12.275Z,9.60
2023-04-19T18:31:40.561Z,9.50
2023-04-19T18:34:11.918Z,9.40
2023-04-19T18:36:40.729Z,9.30
2023-04-19T18:39:09.100Z,9.20
2023-04-19T18:41:37.395Z,9.10
2023-04-19T18:44:34.922Z,9.00
2023-04-19T18:46:55.669Z,9.00
2023-04-19T18:49:23.885Z,8.90
2023-04-19T18:51:52.175Z,8.80
2023-04-19T18:54:20.559Z,8.70
2023-04-19T18:57:20.992Z,8.70
2023-04-19T18:59:40.151Z,8.60
2023-04-19T19:02:08.901Z,8.50
2023-04-19T19:04:51.899Z,8.40
2023-04-19T19:07:34.791Z,8.40
2023-04-19T19:10:17.121Z,8.30
2023-04-19T19:12:47.756Z,8.30
2023-04-19T19:15:17.767Z,8.20
2023-04-19T19:17:49.915Z,8.10
2023-04-19T19:20:19.949Z,8.10
2023-04-19T19:22:48.493Z,8.00
2023-04-19T19:25:17.007Z,8.00
2023-04-19T19:28:04.980Z,7.90
2023-04-19T19:30:35.735Z,7.80
2023-04-19T19:33:04.922Z,7.80
2023-04-19T19:35:33.697Z,7.70
2023-04-19T19:38:03.283Z,7.60
2023-04-19T19:40:32.865Z,7.60
2023-04-19T19:43:01.777Z,7.50
2023-04-19T19:45:30.886Z,7.40
2023-04-19T19:48:01.053Z,7.40
2023-04-19T19:53:01.855Z,7.20
2023-04-19T19:55:30.672Z,7.20
2023-04-19T20:03:04.120Z,7.00
2023-04-19T20:05:33.768Z,7.00
2023-04-19T20:08:11.580Z,6.90
2023-04-19T20:10:43.044Z,6.80
2023-04-19T20:13:12.903Z,6.80
2023-04-19T20:15:42.043Z,6.70
2023-04-19T20:18:11.813Z,6.70
2023-04-19T20:20:40.525Z,6.60
2023-04-19T20:23:08.801Z,6.60
2023-04-19T20:25:38.646Z,6.50
2023-04-19T20:28:07.073Z,6.40
2023-04-19T20:30:35.471Z,6.30
2023-04-19T20:33:03.807Z,6.30
2023-04-19T20:35:36.468Z,6.20
2023-04-19T20:38:07.527Z,6.20
2023-04-19T20:40:35.742Z,6.10
2023-04-19T20:43:04.334Z,6.00
2023-04-19T20:45:33.026Z,6.00
2023-04-19T20:48:01.433Z,5.90
2023-04-19T20:50:29.578Z,5.90
2023-04-19T20:52:59.400Z,5.80
2023-04-19T20:55:28.309Z,5.80
2023-04-19T20:57:56.514Z,5.70
2023-04-19T21:00:24.973Z,5.70
2023-04-19T21:02:53.680Z,5.60
2023-04-19T21:05:22.221Z,5.60
2023-04-19T21:07:50.505Z,5.50
2023-04-19T21:10:21.926Z,5.50
2023-04-19T21:12:50.640Z,5.40
2023-04-19T21:15:19.163Z,5.40
2023-04-19T21:17:47.395Z,5.30
2023-04-19T21:20:18.139Z,5.20
2023-04-19T21:22:47.440Z,5.20
2023-04-19T21:25:15.872Z,5.10
2023-04-19T21:27:45.583Z,5.10
2023-04-19T21:30:14.667Z,5.00
2023-04-19T21:32:42.893Z,5.00
2023-04-19T21:35:11.490Z,4.90
2023-04-19T21:37:39.753Z,4.90
2023-04-19T21:40:09.458Z,4.90
2023-04-19T21:42:37.837Z,4.80
2023-04-19T21:45:09.184Z,4.80
2023-04-19T21:47:37.464Z,4.80
2023-04-19T21:50:06.778Z,4.70
2023-04-19T21:52:34.989Z,4.70
2023-04-19T21:55:03.307Z,4.70
2023-04-19T21:57:31.585Z,4.70
2023-04-19T22:00:00.709Z,4.70
2023-04-19T22:02:30.433Z,4.60
2023-04-19T22:05:00.253Z,4.60
2023-04-19T22:07:30.588Z,4.60
2023-04-19T22:09:58.811Z,4.60
2023-04-19T22:12:27.219Z,4.50
2023-04-19T22:14:56.017Z,4.50
2023-04-19T22:17:24.309Z,4.50
2023-04-19T22:19:54.144Z,4.40
2023-04-19T22:22:22.452Z,4.40
2023-04-19T22:24:57.516Z,4.40
2023-04-19T22:27:26.590Z,4.40
2023-04-19T22:29:54.927Z,4.40
2023-04-19T22:32:23.182Z,4.40
2023-04-19T22:34:52.905Z,4.40
2023-04-19T22:37:21.047Z,4.40
2023-04-19T22:39:49.276Z,4.40
2023-04-19T22:42:17.483Z,4.40
2023-04-19T22:44:45.725Z,4.40
2023-04-19T22:47:14.437Z,4.40
2023-04-19T22:49:43.464Z,4.40
2023-04-19T22:52:14.470Z,4.50
2023-04-19T22:54:42.896Z,4.50
2023-04-19T22:57:11.850Z,4.50
2023-04-19T22:59:40.280Z,4.50
2023-04-19T23:02:08.607Z,4.60
2023-04-19T23:04:37.911Z,4.60
2023-04-19T23:07:06.963Z,4.60
2023-04-19T23:09:38.974Z,4.60
2023-04-19T23:12:08.254Z,4.60
2023-04-19T23:14:38.410Z,4.60
2023-04-19T23:17:06.649Z,4.60
2023-04-19T23:19:36.529Z,4.60
2023-04-19T23:22:04.755Z,4.60
2023-04-19T23:24:33.039Z,4.60
2023-04-19T23:27:03.266Z,4.60
2023-04-19T23:29:31.821Z,4.60
2023-04-19T23:32:01.955Z,4.60
2023-04-19T23:34:30.237Z,4.60
2023-04-19T23:36:58.481Z,4.60
2023-04-19T23:39:26.779Z,4.60
2023-04-19T23:41:55.019Z,4.60
2023-04-19T23:44:24.641Z,4.50
2023-04-19T23:46:52.957Z,4.50
2023-04-19T23:49:21.178Z,4.50
2023-04-19T23:51:50.404Z,4.50
2023-04-19T23:54:21.218Z,4.50
2023-04-19T23:56:49.575Z,4.60
2023-04-19T23:59:19.053Z,4.60
